Milford Labor Day Run

back to results

Sep. 5, 2009

Milford Labor Day Run
Milford,MI
Provided by Gault Race Mgt.


10K AGE-GROUP RESULTS
2009 MILFORD LABOR DAY 30K/10K
SATURDAY, SEPTEMBER 5, 2009

************************ MALE OVERALL WINNER ***********************
Place Oal Name Town No. Ag Time Pace
===== === ====================== ============== ===== == ======= =====
1 1 Jordan Desilets Pinckney 1761 28 32:37 5:16
2 2 Bj Pankow Williamston 1963 25 34:03 5:29
3 4 J.C. Collins Livonia 1904 52 37:29 6:03

************************ FEMALE OVERALL WINNER ***********************
Place Oal Name Town No. Ag Time Pace
===== === ====================== ============== ===== == ======= =====
1 3 Danielle Quisenberry Jackson 1792 27 37:14 6:00
2 6 Laurel Park Ann Arbor 1964 46 37:44 6:05
3 8 Kalli Williams Ann Arbor 1781 24 38:55 6:16

******************** MALE MASTERS WINNER *********************
Place Oal Name Town No. Ag Time Pace
===== === ====================== ============== ===== == ======= =====
1 7 Roger Lara Grand Blanc 1790 51 38:39 2:07

******************** FEMALE MASTERS WINNER *********************
Place Oal Name Town No. Ag Time Pace
===== === ====================== ============== ===== == ======= =====
1 17 Jane Sanders White Lake 1977 53 44:30 2:26

******************** MALE GRANDMASTERS WINNER *********************
Place Oal Name Town No. Ag Time Pace
===== === ====================== ============== ===== == ======= =====
1 9 Phil French Howell 1918 52 39:00 2:08

******************** FEMALE GRANDMASTERS WINNER *********************
Place Oal Name Town No. Ag Time Pace
===== === ====================== ============== ===== == ======= =====
1 17 Jane Sanders White Lake 1977 53 44:30 2:26

MALE AGE GROUP: 1 - 19
Place Oal Name Town No. Ag Time Pace
===== === ====================== ============== ===== == ======= =====
1 23 Chris Forehand Allenton 1916 19 45:30 7:20
2 55 John Lux Brighton 1765 19 52:55 8:31
3 80 Trent Sturos New Hudson 1996 19 56:18 9:04
4 135 Kevin Froese Farmington Hil 1919 15 1:07:23 10:51
5 157 Bobby Kennedy Northville 1936 13 1:13:24 11:49
6 169 Bryce Jagielski Fenton 1928 9 1:42:32 16:31
7 171 Cody Jagielski Fenton 1929 12 1:49:01 17:33

FEMALE AGE GROUP: 1 - 19
Place Oal Name Town No. Ag Time Pace
===== === ====================== ============== ===== == ======= =====
1 69 Carianne Barnes Rochester Hill 1763 17 55:12 8:54
2 83 Stephanie Graves Troy 1921 19 56:38 9:07
3 118 Heather Sartorius Northville 1782 19 1:04:26 10:23
4 127 Millicent Wibert Okemos 2007 19 1:05:41 10:35
5 136 Annie Steinke Farmington Hil 1989 16 1:07:25 10:52
6 149 Skyler Martin Fenton 1951 9 1:10:49 11:24

MALE AGE GROUP: 20 - 24
Place Oal Name Town No. Ag Time Pace
===== === ====================== ============== ===== == ======= =====
1 10 Nathan Willis Chelsea 2008 23 39:07 6:18
2 93 David Steinke Edmonds 1991 22 58:14 9:23
3 107 Phil Lenoll Warren 1764 24 1:01:42 9:56
4 126 Brendan Brown Okemos 1898 20 1:05:40 10:35

FEMALE AGE GROUP: 20 - 24
Place Oal Name Town No. Ag Time Pace
===== === ====================== ============== ===== == ======= =====
1 40 Swenja Tanner Howell 1798 24 50:52 8:12
2 61 Angela Dally Whitmore Lake 1908 20 53:59 8:42
3 70 Jennifer Lefresne Northville 1946 24 55:16 8:54
4 86 Rachel Carter Fenton 1899 22 57:07 9:12
5 90 Stacy Cook Howell 1906 24 57:19 9:14

MALE AGE GROUP: 25 - 29
Place Oal Name Town No. Ag Time Pace
===== === ====================== ============== ===== == ======= =====
1 14 Rob Salisbury Hillsdale 1791 29 42:41 6:53
2 26 Josh Perkey Hartland 1777 28 45:49 7:23
3 31 Christopher Graves Bloomington 1920 26 48:16 7:47
4 57 Joshua Bachmann Milford 1887 29 53:11 8:34
5 67 Bradley Dagen Kentwood 1907 29 55:05 8:53
6 78 Gregory Suzio Commerce Twp 1997 27 56:13 9:03
7 87 Masayuki Ueda Novi 2004 28 57:10 9:13
8 89 Kunihito Senju Novi 1983 28 57:11 9:13
9 91 Brandon Perry Burton 1789 29 57:45 9:18
10 123 Sheji Takihana Canton 1786 28 1:04:45 10:26

FEMALE AGE GROUP: 25 - 29
Place Oal Name Town No. Ag Time Pace
===== === ====================== ============== ===== == ======= =====
1 11 Alicja Stannard Lansing 1987 27 39:35 6:23
2 21 Autumn Brawner Grand Blanc 1895 28 45:14 7:17
3 52 Jamie Borgert Ypsilanti 1894 25 52:43 8:30
4 66 Jennifer Penrice Novi 1757 26 55:00 8:52
5 84 Bobbi Mitchell Shelby Twp 1955 28 56:44 9:08
6 85 Amy Fernandez Warren 1914 28 57:07 9:12
7 122 Keiko Kawaguohi Canton 1785 28 1:04:45 10:26
8 137 Anna Norsky Falls Church 1957 27 1:07:50 10:56
9 138 Tina Plerhoples Lansing 1967 28 1:07:50 10:56
10 140 Morgan Derouin Chesterfield 1911 28 1:08:19 11:00
11 170 Elizabeth Hemmingway Romulus 1925 29 1:45:59 17:04

MALE AGE GROUP: 30 - 34
Place Oal Name Town No. Ag Time Pace
===== === ====================== ============== ===== == ======= =====
1 16 Donald Achey Bancroft 1773 30 44:21 7:09
2 19 Matt Molli Milford 1780 34 44:38 7:12
3 20 Matt Grimes Detroit 1922 31 45:00 7:15
4 35 Christopher Trudeau Dewitt 350 33 49:51 8:02
5 60 Jason Brawner Grand Blanc 1896 32 53:52 8:41
6 64 Dan McCulley Livonia 1953 34 54:39 8:48
7 98 Dan Jere Petersburg 1931 30 58:48 9:28
8 119 Vito Rocco Birmingham 1975 33 1:04:31 10:24
9 130 Jeff Schodowski Auburn Hills 1980 33 1:06:37 10:44

FEMALE AGE GROUP: 30 - 34
Place Oal Name Town No. Ag Time Pace
===== === ====================== ============== ===== == ======= =====
1 22 Jessica Shehab Northville Tow 314 33 45:18 7:18
2 75 Jennifer Matras Farmington Hil 1952 31 55:52 9:00
3 82 Elizabeth Nuckolls Grand Blanc 1958 32 56:31 9:06
4 94 Karen Berghorst Hudsonville 1889 31 58:16 9:23
5 95 Eleanore Schroeder Detroit 1981 31 58:32 9:26
6 97 Nicole Sobick 1768 33 58:45 9:28
7 108 Heather Trudeau Dewitt 2001 33 1:01:56 9:59
8 112 Kimberly Morrison Howell 1956 34 1:02:11 10:01
9 113 Shelley Marie Bills Jonesville 1891 30 1:02:24 10:03
10 114 Melissa Richards Milford 1748 33 1:02:48 10:07
11 116 Nicole Rocco Birmingham 1974 34 1:03:55 10:18
12 145 Melissa Pembroke Highland 1775 32 1:10:19 11:20
13 148 Erin Radley Livonia 1970 34 1:10:40 11:23
14 162 Elaine Wisniewski Howell 2009 33 1:14:00 11:55
15 173 Rosemary Omron Brighton 1961 34 3:09:48 30:34

MALE AGE GROUP: 35 - 39
Place Oal Name Town No. Ag Time Pace
===== === ====================== ============== ===== == ======= =====
1 5 Craig Dolecki Redford 1784 35 37:39 6:04
2 25 Chris Colon Waterford 1905 35 45:46 7:22
3 37 Doug Fowler Howell 1917 39 50:16 8:06
4 42 Frank Klingbeil Commerce Twp 1942 35 51:01 8:13
5 50 Jean Thorington Pinckney 1776 36 52:13 8:25
6 54 Jeff Nuckolls Grand Blanc 1959 36 52:53 8:31
7 56 Rick Stempien Milford 1992 38 53:01 8:32
8 76 Scott Hiipakka Milford 1926 38 55:55 9:01
9 79 Sean Metcalfe Fenton 1799 37 56:16 9:04
10 81 Don Nurkala Milford 1788 36 56:23 9:05
11 139 David Kott Sterling Heigh 1943 37 1:08:15 11:00
12 163 Eric Stimpson Troy 1993 36 1:14:01 11:55
13 172 Alberto Colin Plainfield 1803 39 2:09:14 20:49

FEMALE AGE GROUP: 35 - 39
Place Oal Name Town No. Ag Time Pace
===== === ====================== ============== ===== == ======= =====
1 48 Sara Johnson Brighton 1932 35 51:47 8:21
2 53 Anne Bussom Cincinnati 1758 36 52:48 8:30
3 92 Tendai Thomas Farmington Hil 2000 35 58:08 9:22
4 100 Renee Drap White Lake 1796 39 59:20 9:34
5 101 Hilary Clemens Sterling Heigh 1901 39 59:24 9:34
6 125 Dianne Pascoe Lapeer 1966 39 1:05:11 10:30
7 133 Betty Brendle Shelby Twp 1897 39 1:06:57 10:47
8 141 Amy Delaney Belleville 1910 38 1:08:58 11:06
9 144 Sarah Aittama Wixom 1753 35 1:09:44 11:14
10 147 Carrin Tunney Novi 2003 37 1:10:23 11:20
11 160 Deanna Kennedy Clarkston 1937 39 1:13:46 11:53
12 164 Kendra Bonjemoor Hillsdale 1893 36 1:15:26 12:09
13 165 Lori Jagielski Fenton 1930 37 1:15:46 12:12
14 168 Lisa Kyriakides Waterford 1945 37 1:26:08 13:52

MALE AGE GROUP: 40 - 44
Place Oal Name Town No. Ag Time Pace
===== === ====================== ============== ===== == ======= =====
1 12 Rob Basydlo Highland 1888 42 40:17 6:29
2 13 Jeff Royer Ferndale 1976 43 42:16 6:49
3 29 James Colar New Baltimore 1903 43 47:41 7:41
4 30 John Gruber 1778 44 47:59 7:44
5 44 Jeff Smith Windsor 1771 41 51:26 8:17
6 46 James Swanson Milford 1759 43 51:33 8:18
7 59 Mark Sarafa Highland 1978 42 53:34 8:38
8 62 Ted Ziegler Commerce Twp 1752 40 54:19 8:45
9 68 Mark Kenyon Waterford 1940 42 55:12 8:54
10 73 Eric Storhok Ann Arbor 1994 42 55:36 8:57
11 74 Steve Horstman Oak Park 1927 44 55:42 8:58
12 109 Mike Sarafa Novi 1979 43 1:01:57 9:59
13 111 Jani Kalidindi Auburn Hills 1934 43 1:02:06 10:00
14 115 Anthony Will Macomb 375 44 1:03:49 10:17
15 120 Anastase Markou Kalamazoo 1950 43 1:04:33 10:24
16 121 David Onofrio Highland 1962 43 1:04:33 10:24
17 131 Steve Benzie Brighton 1755 41 1:06:40 10:44
18 150 Richard Olson Madison 1960 43 1:11:16 11:29
19 159 Robert Kennedy Northville 1939 44 1:13:45 11:53
20 161 James Kennedy Clarkston 1938 40 1:13:47 11:53

FEMALE AGE GROUP: 40 - 44
Place Oal Name Town No. Ag Time Pace
===== === ====================== ============== ===== == ======= =====
1 71 Shawn Miller Fenton 1760 40 55:34 8:57
2 72 Sheila Sturgill-Koszyc Ann Arbor 1995 42 55:36 8:57
3 88 Amanda Higgins Chelsea 1772 42 57:10 9:13
4 117 Monika Park Birmingham 1965 43 1:04:23 10:22
5 129 Tami Monk New Hudson 1750 43 1:05:50 10:36
6 132 Lara Eriksen West Bloomfiel 1779 41 1:06:54 10:47
7 146 Melissa Benzie Brighton 1754 41 1:10:20 11:20
8 151 Karrie Posio Berkley 1968 40 1:11:17 11:29

MALE AGE GROUP: 45 - 49
Place Oal Name Town No. Ag Time Pace
===== === ====================== ============== ===== == ======= =====
1 28 Christopher Ford Brighton 1749 47 47:37 7:40
2 33 Thomas Thivierge Rochester Hill 1999 46 49:09 7:55
3 65 Ernest Billingsley Detroit 1890 48 54:55 8:51
4 77 Jose Meijer Commerce Twp 1954 46 56:10 9:03
5 104 Steve Kushim Highland 1944 46 1:00:41 9:46
6 110 Gary Packard Colorado Sprin 1783 48 1:01:58 9:59
7 134 Brian Spengler Milford 1985 46 1:07:22 10:51
8 154 John Lux Brighton 1766 47 1:13:00 11:45

FEMALE AGE GROUP: 45 - 49
Place Oal Name Town No. Ag Time Pace
===== === ====================== ============== ===== == ======= =====
1 34 Kathy Bohnsack Brighton 1892 47 49:44 8:01
2 36 Jenni Everal Taylor 1769 45 50:13 8:05
3 41 Anne Proulx Milford 1969 48 50:55 8:12
4 102 Karen Lux Brighton 1767 46 59:43 9:37
5 103 Laura Hauser Cleveland Heig 1924 45 59:56 9:39
6 128 Susan Zale Chelsea 1751 47 1:05:45 10:36

MALE AGE GROUP: 50 - 54
Place Oal Name Town No. Ag Time Pace
===== === ====================== ============== ===== == ======= =====
1 24 Paul Kaip Warren 1762 53 45:44 7:22
2 27 Robert Malone Brighton 1948 51 46:23 7:28
3 39 Greg Everal Taylor 1770 50 50:44 8:10
4 43 Hiroyuki Shinohara Ann Arbor 1984 54 51:03 8:13
5 49 Thomas Raskauskas Brighton 1972 50 52:01 8:23
6 51 Jim Radley Livonia 1971 51 52:18 8:26
7 58 Tom Torossian Milford 1774 51 53:14 8:35
8 106 Robert Hansford Medford 1923 51 1:01:29 9:54
9 142 James Scott South Lyon 1982 50 1:09:30 11:12
10 166 Daniel Manville Dearborn 1949 50 1:16:12 12:16

FEMALE AGE GROUP: 50 - 54
Place Oal Name Town No. Ag Time Pace
===== === ====================== ============== ===== == ======= =====
1 38 Linda Dondzila Pinckney 1912 53 50:27 8:08
2 99 Paula Robinson Milford 1973 51 58:48 9:28
3 143 Susan McConnell Southgate 408 53 1:09:31 11:12
4 167 Betty Steinke Farmington Hil 1990 50 1:23:33 13:27

MALE AGE GROUP: 55 - 59
Place Oal Name Town No. Ag Time Pace
===== === ====================== ============== ===== == ======= =====
1 32 Richard Veneziano 1797 57 48:22 7:48
2 45 Michael Miller Marshall 227 58 51:30 8:18
3 47 Kirt Stalker Clarkston 1986 56 51:44 8:20
4 63 Scott Szumanski Trenton 1998 56 54:35 8:48
5 105 Myles Davis Milford 1909 59 1:01:20 9:53

FEMALE AGE GROUP: 55 - 59
Place Oal Name Town No. Ag Time Pace
===== === ====================== ============== ===== == ======= =====
1 18 Kari Chandler Okemos 1900 56 44:31 7:10

MALE AGE GROUP: 60 - 64
Place Oal Name Town No. Ag Time Pace
===== === ====================== ============== ===== == ======= =====
1 15 Mike Rollason Rochester Hill 1793 60 42:49 6:54
2 124 Del Malzohn Commerce Twp 1794 62 1:05:10 10:30
3 152 Mike Starynchak Waterford 1988 61 1:11:33 11:31
4 158 Joe Maletta Milford 1801 63 1:13:36 11:51

FEMALE AGE GROUP: 60 - 64
Place Oal Name Town No. Ag Time Pace
===== === ====================== ============== ===== == ======= =====
1 155 Ruth Maletta Milford 1800 63 1:13:09 11:47
2 156 Maryann Valade Farmington Hil 2005 60 1:13:14 11:48

MALE AGE GROUP: 65 - 69
Place Oal Name Town No. Ag Time Pace
===== === ====================== ============== ===== == ======= =====
1 96 Richard Jones Highland 1933 66 58:44 9:28

FEMALE AGE GROUP: 65 - 69
Place Oal Name Town No. Ag Time Pace
===== === ====================== ============== ===== == ======= =====
1 153 Jane Rolfe 1787 69 1:12:17 11:39

MALE AGE GROUP: 70 - 98
Place Oal Name Town No. Ag Time Pace
===== === ====================== ============== ===== == ======= =====

FEMALE AGE GROUP: 70 - 98
Place Oal Name Town No. Ag Time Pace
===== === ====================== ============== ===== == ======= =====




OVERALL RESULTS FOR MILFORD LABOR DAY 10K WALK
SATURDAY, SEPTEMBER 5, 2009

Place Oal Name Town No. Ag S Time Pace
===== === ====================== ============== ===== == = ======= =====
1 1 Doug Fisher Flushing 957 66 M 1:21:13 13:05

2 2 Michelle Billingsley Detroit 952 45 F 1:24:53 13:40
3 3 Debra Zoellner Eastpointe 967 52 F 1:25:23 13:45
4 4 Mike Anderson Flushing 968 77 M 1:27:38 14:07
5 5 Reynolds Farley Ann Arbor 956 71 M 1:30:02 14:30
6 6 Rachel Hood Royal Oak 960 30 F 1:30:05 14:30
7 7 Karen Reed Milford 963 59 F 1:31:47 14:47
8 8 Bonnie Linton Milford 961 39 F 1:31:47 14:47
9 9 Mark Campbell Grand Rapids 955 54 M 1:38:38 15:53
10 10 Vincent Praszmont Wixom 969 51 M 1:38:38 15:53
11 11 Maxwell Wibert Okemos 2006 13 M 1:42:10 16:27
12 12 Danielle Schink Milford 964 44 F 1:42:19 16:29
13 13 Margie Gillean Flushing 958 54 F 1:45:42 17:01
14 14 Stacy Gillean Commerce 959 29 F 1:45:42 17:01
15 15 Karen Brown Okemos 953 51 F 1:46:44 17:11
16 16 Rick Brown Okemos 954 51 M 1:46:45 17:11
17 17 Timothy Wibert Okemos 966 46 M 1:46:51 17:12
18 18 Charles Wibert Okemos 965 16 M 1:48:47 17:31
19 19 Lori Post Okemos 962 45 F 1:48:47 17:31
9/05/2009 11:47AM




30K AGE-GROUP RESULTS
2009 MILFORD LABOR DAY 30K/10K
SATURDAY, SEPTEMBER 5, 2009

************************ MALE OVERALL WINNER ***********************
Place Oal Name Town No. Ag Time Pace
===== === ====================== ============== ===== == ======= =====
1 1 Corey Nowitzke Ann Arbor 244 25 1:40:41 5:25
2 2 Ian Forsyth Ann Arbor 99 37 1:41:37 5:28
3 3 Scott Setzke Riverview 448 28 1:49:47 5:54

************************ FEMALE OVERALL WINNER ***********************
Place Oal Name Town No. Ag Time Pace
===== === ====================== ============== ===== == ======= =====
1 8 Andrea Pomaranski Farmington Hil 266 27 1:57:23 6:18
2 13 Erin O'Mara Ypsilanti 246 25 1:59:54 6:26
3 21 Lisa Veneziano Fenton 355 44 2:03:47 6:39

******************** MALE MASTERS WINNER *********************
Place Oal Name Town No. Ag Time Pace
===== === ====================== ============== ===== == ======= =====
1 6 David Chomet Berkley 49 40 1:57:09 6:24

******************** FEMALE MASTERS WINNER *********************
Place Oal Name Town No. Ag Time Pace
===== === ====================== ============== ===== == ======= =====
1 24 Marybeth Reader Bloomfield 281 40 2:04:42 6:49

******************** MALE GRANDMASTERS WINNER *********************
Place Oal Name Town No. Ag Time Pace
===== === ====================== ============== ===== == ======= =====
1 16 Dave Wolbert Flint 382 50 2:01:57 6:40

******************** FEMALE GRANDMASTERS WINNER *********************
Place Oal Name Town No. Ag Time Pace
===== === ====================== ============== ===== == ======= =====
1 205 Kathy` Milczarski Farmington Hil 226 51 2:43:06 8:55

MALE AGE GROUP: 1 - 19
Place Oal Name Town No. Ag Time Pace
===== === ====================== ============== ===== == ======= =====
1 17 Erik Potere Howell 268 18 2:02:56 6:36
2 124 Matt Martineau Saginaw 498 16 2:29:26 8:01
3 335 Jamal Fakih Southgate 485 16 3:03:12 9:50

FEMALE AGE GROUP: 1 - 19
Place Oal Name Town No. Ag Time Pace
===== === ====================== ============== ===== == ======= =====

MALE AGE GROUP: 20 - 24
Place Oal Name Town No. Ag Time Pace
===== === ====================== ============== ===== == ======= =====
1 82 Andrew Simmons Kalamazoo 316 21 2:23:15 7:42
2 171 Eric Engel Riverview 87 23 2:37:58 8:29
3 402 Kevin Gienapp Jackson 110 24 3:18:26 10:39

FEMALE AGE GROUP: 20 - 24
Place Oal Name Town No. Ag Time Pace
===== === ====================== ============== ===== == ======= =====
1 159 Emily Wilson Ferndale 379 24 2:35:33 8:21
2 169 Stefanie Perri Walled Lake 260 24 2:37:41 8:28
3 240 Allison Smith Beverly Hills 321 24 2:48:48 9:04
4 265 Heather Hengesbach Ann Arbor 134 24 2:51:43 9:13
5 275 Rachel Sterk Grandville 330 23 2:53:17 9:18
6 346 Rachel Doherty Rochester Hill 72 24 3:06:11 10:00
7 403 Jennifer Gienapp Jackson 109 24 3:18:26 10:39
8 420 Brittin Pollack Canton 265 24 3:23:13 10:55
9 421 Jennifer Horton Plymouth 148 23 3:23:14 10:55
10 439 Laurin Katzenstein Beverly Hills 166 21 3:30:37 11:18
11 477 Sarah Travis Troy 349 23 3:52:22 12:28

MALE AGE GROUP: 25 - 29
Place Oal Name Town No. Ag Time Pace
===== === ====================== ============== ===== == ======= =====
1 4 Peter Hogg Livonia 463 26 1:50:53 5:57
2 5 Michael Johnson Ann Arbor 480 28 1:52:38 6:03
3 12 James Webber Otsego 446 26 1:59:44 6:26
4 39 Jeff Van Dusen Bay City 497 27 2:08:56 6:55
5 40 Stephen Chase Jackson 48 25 2:09:37 6:58
6 48 Jeff Everett Livonia 89 28 2:12:49 7:08
7 51 Nicholas McCubbin Milford 219 26 2:15:35 7:17
8 69 Andy Kapalin Sterling Heigh 163 26 2:19:30 7:29
9 73 Cam McCord Ann Arbor 499 29 2:20:06 7:31
10 96 Derek Chandler Livonia 47 28 2:24:42 7:46
11 141 Scott Meyer Novi 522 26 2:32:53 8:13
12 153 John Wenstrom Lansing 370 25 2:34:35 8:18
13 190 Jade Nabbouh Detroit 237 25 2:40:25 8:37
14 211 Fumiaki Ariyoshi 464 27 2:43:43 8:47
15 243 Paul Derouin Chesterfield 67 29 2:49:02 9:05
16 249 Stephen Sinas Lansing 317 28 2:49:39 9:06
17 251 Ian Parker Livonia 405 27 2:50:00 9:08
18 256 Daniel Seden 400 29 2:50:15 9:08
19 315 Brian Gregory Clarkston 118 27 3:00:10 9:40
20 357 Michael Rice Sterling Heigh 284 28 3:08:44 10:08
21 359 Shawn Penrice Novi 259 25 3:09:43 10:11
22 384 Anthony Amaco Southfield 393 27 3:15:23 10:29
23 388 Chris Todd White Lake 395 28 3:16:31 10:33
24 430 Kevin Cary Chicago 45 25 3:26:45 11:06
25 459 Jacob O'Neill Plymouth 247 25 3:39:21 11:46

FEMALE AGE GROUP: 25 - 29
Place Oal Name Town No. Ag Time Pace
===== === ====================== ============== ===== == ======= =====
1 34 Erin Maloney Lansing 447 27 2:07:21 6:50
2 90 Laura Howe Ann Arbor 149 25 2:23:52 7:43
3 138 Lauren Scott West Bloomfiel 306 25 2:32:15 8:10
4 174 Jamie Christie Sparta 489 28 2:38:12 8:30
5 186 Laura Good Royal Oak 506 28 2:40:14 8:36
6 187 Lindsay Cullen Rochester 55 25 2:40:19 8:36
7 198 Heather Dyc Redford 79 25 2:42:19 8:43
8 218 Aubree Hunter Bloomfield Hil 507 27 2:44:32 8:50
9 250 Heidi Schroeder Lansing 301 26 2:49:39 9:06
10 263 Maureen Watson Brighton 367 27 2:51:23 9:12
11 284 Lisa Fleming Bay City 495 26 2:55:42 9:26
12 291 Candice Elwood Chicago 492 27 2:56:13 9:28
13 293 Allison Fleming Lansing 96 28 2:56:48 9:30
14 310 Laurence Lemaire Ferndale 401 26 2:59:15 9:37
15 314 Amber Laho Milford 521 28 3:00:09 9:40
16 320 Natalie Hanks Ann Arbor 473 27 3:00:53 9:43
17 330 Jennifer Wenzel-Ziegle Ypsilanti 460 26 3:02:39 9:48
18 332 Tiffany Guzik Farmington Hil 404 25 3:03:00 9:49
19 364 Stephanie Szopo Brighton 337 27 3:10:07 10:12
20 372 Lucy Sternburgh Rochester Hill 331 26 3:13:34 10:23
21 387 Meggan Kantz Dearborn 161 29 3:15:50 10:31
22 405 Melissa Leannais Whitmore Lake 189 28 3:18:43 10:40
23 438 Mariann Sylvester Ann Arbor 336 29 3:30:11 11:17
24 457 Margherita Scarffe Pinckney 479 29 3:39:14 11:46
25 463 Gwen Boeve Holland 22 26 3:42:21 11:56
26 480 Amanda Shatzman Chicago 426 25 3:55:25 12:38
27 481 Rachel Pultusker Ann Arbor 423 25 3:55:25 12:38
28 483 Melissa Park Waterford 255 28 3:57:18 12:44

MALE AGE GROUP: 30 - 34
Place Oal Name Town No. Ag Time Pace
===== === ====================== ============== ===== == ======= =====
1 20 Matthew McGowan Grand Rapids 221 31 2:03:40 6:39
2 31 Jason Aspinall Morton 8 30 2:06:37 6:48
3 32 Matthew Santner Dowling 296 33 2:06:49 6:49
4 36 James Felton Iii Saginaw 93 33 2:07:48 6:52
5 44 Brian Vento Ann Arbor 418 31 2:10:26 7:00
6 52 Bobby Klemmer South Lyon 175 31 2:15:50 7:18
7 55 Jesse Sweeney Milford 1 33 2:16:33 7:20
8 78 Scott Fishel Lansing 95 31 2:20:44 7:33
9 102 Michael Deneau Windsor 66 34 2:25:33 7:49
10 111 Ben Sandin Shelby Townshi 295 33 2:27:18 7:55
11 116 Brendt Lozen Mt. Clemens 200 30 2:28:11 7:57
12 135 Timothy Carmody Plymouth 40 31 2:31:30 8:08
13 147 Aaron Haverberg Kalamazoo 130 30 2:34:03 8:16
14 148 Chris Adang Ann Arbor 2 34 2:34:11 8:17
15 149 Brad Thomas` Fort Wayne 343 34 2:34:11 8:17
16 155 Cesar Gonzalez Ypsilanti 113 32 2:34:56 8:19
17 160 Chad Barnett Roseville 14 34 2:35:40 8:22
18 166 Jason Wilmoth Livonia 378 32 2:36:50 8:25
19 189 Steve Marcero Novi 210 32 2:40:24 8:37
20 196 Frank Jere Saline 156 33 2:42:01 8:42
21 225 Chuck Zahnow Vicksburg 388 32 2:45:32 8:53
22 227 James Bryant Charleston 35 33 2:46:03 8:55
23 229 Patrick Hoag Saline 142 33 2:46:16 8:56
24 254 David O'Hara Novi 245 30 2:50:15 9:08
25 271 Marco Gonzalez Ypsilanti 486 33 2:52:51 9:17
26 317 Gregory Garner Commerce Twp 402 34 3:00:12 9:40
27 323 Steve Wisinski Brighton 380 34 3:01:42 9:45
28 337 Chad Schultz Grand Blanc 303 30 3:03:36 9:51
29 343 Douglas Rakoski Ann Arbor 278 31 3:05:47 9:58
30 363 Dan McGuire Canton 222 33 3:10:07 10:12
31 380 Andy Alverson Fowlerville 429 34 3:15:14 10:29
32 382 Mike Setleck Rockford 430 34 3:15:14 10:29
33 411 Jay Rosebrough Grand Blanc 289 32 3:20:13 10:45
34 426 Jason Heidel Chesterton 132 30 3:25:08 11:01
35 444 John Doonan Detroit 75 32 3:34:28 11:31
36 478 Anton Botosan Canton 397 30 3:52:25 12:28

FEMALE AGE GROUP: 30 - 34
Place Oal Name Town No. Ag Time Pace
===== === ====================== ============== ===== == ======= =====
1 33 Leah Scharl Clarkston 299 32 2:07:13 6:50
2 63 Jennifer Tiemann Fenton 344 34 2:18:18 7:26
3 64 Michelle Neel Kalamazoo 239 34 2:18:19 7:26
4 71 Alice Essinger Bluffton 88 32 2:19:35 7:30
5 101 Melissa Ahearne Fort Meyers 451 32 2:25:12 7:48
6 118 Gretchen Holloway Plymouth 144 34 2:28:31 7:58
7 119 Roxanne Carr Troy 44 32 2:28:53 8:00
8 130 Julie Wojtaszek Portage 381 33 2:30:52 8:06
9 133 Elizabeth Shafer Monroe 311 32 2:31:07 8:07
10 154 Jessica Marek Grand Blanc 212 32 2:34:55 8:19
11 161 Sarah Shipley Canton 523 30 2:35:45 8:22
12 192 Danielle Lamb Northville 185 33 2:40:59 8:39
13 200 Amber Williamson Macomb 377 33 2:42:32 8:44
14 207 Andrea Carollo Lessway Royal Oak 42 30 2:43:08 8:46
15 210 Dana Karfonta South Lyon 164 34 2:43:39 8:47
16 213 Rochelle Sharkey South Lyon 313 31 2:44:10 8:49
17 224 Angela Long Novi 199 30 2:45:32 8:53
18 252 Karen Kazensky Westland 167 30 2:50:03 9:08
19 255 Risa Strawhecker Louisville 334 30 2:50:15 9:08
20 264 Mandy Hetfield Royal Oak 139 30 2:51:32 9:13
21 267 Katie Quinn St Clair Shore 517 32 2:52:04 9:14
22 297 Alyse Preston Conifer 272 34 2:57:12 9:31
23 308 Akiko Fujita Wolverine Lake 103 32 2:59:07 9:37
24 311 Grace Overlander Birmingham 438 30 2:59:24 9:38
25 319 Geraldine Barnuevo Troy 15 31 3:00:52 9:43
26 333 Julie Vorhoff Milan 361 31 3:03:06 9:50
27 334 Sharon Terlep Royal Oak 340 30 3:03:11 9:50
28 339 Zoe Metro Ypsilanti 519 34 3:04:18 9:54
29 344 Mina Rakoski Ann Arbor 279 34 3:05:47 9:58
30 404 Paige Hillman Davison 141 33 3:18:32 10:39
31 419 Amanda Snyder Ferndale 323 34 3:22:07 10:51
32 425 Margaret Bouchey S. Lyon 24 30 3:25:04 11:00
33 453 Kristie Eagles Canton 80 34 3:38:18 11:43
34 461 Beverly McCulley Livonia 220 32 3:39:57 11:48
35 462 Heather Fishel Lansing 409 33 3:41:21 11:53
36 482 Gail Vires Pontiac 359 33 3:57:17 12:44
37 486 Stephanie Grady New Boston 115 34 4:05:44 13:11

MALE AGE GROUP: 35 - 39
Place Oal Name Town No. Ag Time Pace
===== === ====================== ============== ===== == ======= =====
1 7 Chris White Granger 371 35 1:57:22 6:18
2 26 Jeff Domenico Battle Creek 74 39 2:05:05 6:43
3 28 Claudio Salas Allen Park 293 39 2:06:01 6:46
4 30 Steve Zagacki Troy 484 39 2:06:33 6:48
5 35 Jay Steele Plymouth 407 38 2:07:44 6:52
6 47 Matt Eugster Grand Rapids 461 37 2:12:29 7:07
7 68 Mike Vamvounis Brighton 354 38 2:19:30 7:29
8 70 Darren Ehgotz Belleville 82 38 2:19:34 7:30
9 75 Adam Stam Berkely 328 38 2:20:19 7:32
10 85 Jonathan Curry Fowlerville 58 35 2:23:28 7:42
11 95 Ryan Gasser Davison 105 37 2:24:29 7:46
12 98 David Deguzman Ann Arbor 62 35 2:24:50 7:47
13 104 Preston Thomas Farmington Hil 342 35 2:25:37 7:49
14 115 Merlin Elsner Warren 86 35 2:28:11 7:57
15 134 James Landon Grand Blanc 186 37 2:31:27 8:08
16 143 Scott Miller South Lyon 518 36 2:33:18 8:14
17 145 Kevin McGuirk Northville 223 38 2:33:25 8:14
18 164 Kevin Terry Wixom 341 37 2:36:16 8:23
19 184 Phil Schwaiger West Bloomfiel 304 39 2:40:05 8:36
20 194 Isamu Fairbanks Bloomfield Hil 441 38 2:41:11 8:39
21 203 Russell Becker Grand Blanc 435 39 2:42:58 8:45
22 214 Christopher Topham Bloomfield 346 37 2:44:11 8:49
23 217 Michael Lumberg Farmington Hil 202 39 2:44:26 8:50
24 231 Christopher Echols Grand Blanc 81 35 2:46:32 8:56
25 235 Shogo Ito Farmington Hil 152 35 2:47:48 9:01
26 242 Chris Gilstad Midland 111 36 2:49:01 9:04
27 244 Ron Baysinger Westland 16 39 2:49:07 9:05
28 253 Aaron Bryant Burton 34 37 2:50:12 9:08
29 259 Rob Roux Milford 403 38 2:50:55 9:11
30 269 Sean Zecman Novi 390 35 2:52:30 9:16
31 305 Malay Patel Livonia 477 38 2:58:58 9:36
32 309 James Connor Royal Oak 54 35 2:59:15 9:37
33 312 Michael Andrade Milford 7 38 2:59:42 9:39
34 316 Michael Quane Milford 275 38 3:00:12 9:40
35 394 James Webster Washington Twp 368 38 3:17:19 10:36
36 399 Daniel Bouchey South Lyon 23 38 3:17:46 10:37
37 412 David Rueda Grosse Pointe 290 35 3:20:58 10:47
38 415 Lee Lingo Washington 496 37 3:21:20 10:48
39 428 Hoggie Amare Troy 442 36 3:26:03 11:04
40 436 Jason Ruge West Bloomfiel 443 37 3:29:42 11:15
41 488 Makesh Parab Waterford 421 36 4:05:59 13:12

FEMALE AGE GROUP: 35 - 39
Place Oal Name Town No. Ag Time Pace
===== === ====================== ============== ===== == ======= =====
1 67 Seana Larson Dexter 188 39 2:19:26 7:29
2 89 Kristin Kachnowski Wixom 160 38 2:23:51 7:43
3 122 Cheryl Halonen Howell 124 38 2:29:16 8:01
4 139 Charlotte Carne Ann Arbor 41 37 2:32:28 8:11
5 140 Cathy Sanborn Ann Arbor 294 36 2:32:33 8:11
6 151 Marrea Delamerced Ann Arbor 431 36 2:34:29 8:18
7 175 Andrea Leszczuk Shelby Twp. 193 37 2:38:19 8:30
8 176 Maray Sacks Albion 505 39 2:38:21 8:30
9 222 Stefanie Schwaiger West Bloomfiel 305 38 2:44:47 8:51
10 261 Laurie Hartman Saline 129 38 2:51:03 9:11
11 280 Francesca Priebe-Nelso Farmington Hil 274 36 2:54:39 9:23
12 281 Natasha Goodman Novi 450 38 2:54:50 9:23
13 290 Jennifer Keliikuli Northville 472 37 2:56:07 9:27
14 299 Angela Laudermillk 420 38 2:57:54 9:33
15 304 Mary Yang Grand Blanc 385 37 2:58:51 9:36
16 325 Erricka Martin Flint 214 36 3:02:14 9:47
17 331 Heather Patterson Wyandotte 256 35 3:02:39 9:48
18 336 Kelly Fedele Southgate 92 39 3:03:13 9:50
19 341 Christine Negendank Ann Arbor 240 37 3:04:20 9:54
20 348 Adrienne Dresevic Northville 78 37 3:06:16 10:00
21 350 Kellie McQueen West Bloomfiel 225 39 3:06:46 10:02
22 374 Kris Welko Wixom 369 38 3:14:01 10:25
23 393 Dennie Jo Zink Commerce Twp 391 36 3:17:17 10:35
24 416 Deborah Vinitski Livonia 358 39 3:21:20 10:48
25 447 Leslie Morrow Waterford 233 35 3:35:55 11:35
26 450 Nichole Thiele Rochester Hill 487 38 3:36:21 11:37
27 456 Denise Hahn Hartland 493 36 3:39:13 11:46
28 465 Marilyn Lackey St. Clair Shor 183 38 3:43:37 12:00
29 466 Shirley Kolakorch White Lake 394 38 3:43:49 12:01
30 472 Jacalyn Slater Holly 320 37 3:49:17 12:18
31 475 Emilie Degryse Center Line 61 35 3:51:55 12:27
32 484 Christine Benbow Tipton 19 37 3:57:46 12:46
33 493 Ban George Farmington Hil 428 37 4:16:12 13:45
34 496 Georgina Mandas Royal Oak 209 39 4:18:28 13:52

MALE AGE GROUP: 40 - 44
Place Oal Name Town No. Ag Time Pace
===== === ====================== ============== ===== == ======= =====
1 9 Eric Rzeppa Sterling Heigh 292 42 1:57:26 6:18
2 10 Brian Mazur Jackson 218 41 1:58:25 6:22
3 15 Greg Thomas Clio 467 40 2:01:28 6:31
4 19 Gale Fischer Battle Creek 94 41 2:03:31 6:38
5 22 Scot Ursum Grandville 352 41 2:03:50 6:39
6 23 Mark Morawski Birmingham 231 42 2:04:19 6:41
7 41 Peter Sperry Indianapolis 455 43 2:09:56 6:59
8 42 Jeffrey Bell Lansing 18 44 2:10:00 6:59
9 58 Matt Villemule Milford 482 44 2:17:45 7:24
10 59 Tim Sochor Kalamazoo 324 44 2:17:52 7:24
11 62 Jorge Newbery Cincinnati 242 43 2:18:13 7:25
12 66 John Quayle Belleville 276 40 2:19:11 7:28
13 80 Will Neafsey Northville 238 41 2:21:40 7:36
14 93 Todd Gramlich Clarkston 116 41 2:24:09 7:44
15 100 Dennis Younkin South Lyon 387 42 2:24:53 7:47
16 103 Glenn Smith Sterling Heigh 322 44 2:25:36 7:49
17 106 Doug Allie Brant 5 43 2:25:38 7:49
18 109 Jeff Buck Canton 410 43 2:26:02 7:50
19 120 Jesus Servin Ypsilanti 309 42 2:28:53 8:00
20 121 Eric Straka 501 43 2:29:08 8:00
21 132 Brian Rolfe Rochester 529 42 2:30:58 8:06
22 142 Chris Brandly Ypsilanti 470 43 2:33:09 8:13
23 158 Ben Precious Commerce 271 41 2:35:25 8:21
24 178 Paul Baker Rochester Hill 11 42 2:39:09 8:33
25 179 Joel Gibson Grandville 107 43 2:39:36 8:34
26 181 Duane Culp Commerce Twp 56 44 2:39:57 8:35
27 185 Kenneth Herrington Clinton Townsh 136 42 2:40:06 8:36
28 197 Tib Tsadik Novi 351 40 2:42:08 8:42
29 199 John Willis Novi 491 40 2:42:24 8:43
30 202 Erez Azaria Birmingham 9 42 2:42:54 8:45
31 226 Marc Toth Ann Arbor 347 40 2:45:45 8:54
32 228 Kyoung-Tae Kim Rochester Hill 172 42 2:46:16 8:56
33 237 Peter Henke Ann Arbor 135 43 2:47:52 9:01
34 257 Dave Ddrap White Lake 516 42 2:50:21 9:09
35 258 Axel Demuth Farmington Hil 64 44 2:50:37 9:10
36 262 Brian Wagner Lansing 419 43 2:51:08 9:11
37 270 Tim Martin Fenton 215 42 2:52:46 9:17
38 273 Duane Machesney Grand Blanc 204 41 2:53:06 9:18
39 289 Kai Keliikuli Northville 471 40 2:56:07 9:27
40 318 Curt Gillingham 466 43 3:00:26 9:41
41 321 Steve Heuwagen Canton 396 40 3:01:24 9:44
42 322 Michael Benson Bowling Green 20 42 3:01:32 9:45
43 328 Romney Spencer South Lyon 326 44 3:02:35 9:48
44 368 Jonathon Hirsch Huntington Woo 433 41 3:12:31 10:20
45 400 Ed Blue Saginaw 524 44 3:17:48 10:37
46 406 Michael Toth-Purcell Brighton 348 44 3:19:21 10:42
47 424 Mike Des Rosiers Brighton 511 40 3:24:26 10:58
48 452 Howard Ishbia West Bloomfiel 399 44 3:37:53 11:42
49 467 Bruce Brendle Shelby Twp 30 42 3:44:33 12:03
50 487 Romel Llarena Birmingham 422 40 4:05:58 13:12

FEMALE AGE GROUP: 40 - 44
Place Oal Name Town No. Ag Time Pace
===== === ====================== ============== ===== == ======= =====
1 92 Amy Morgan Northville 232 41 2:24:06 7:44
2 107 Mary Dorazio Brighton 76 41 2:25:42 7:49
3 114 Doug Ayers Milford 515 40 2:28:03 7:57
4 150 Kelly Vanderhave Ann Arbor 432 42 2:34:15 8:17
5 163 Karen Reis Lasalle 283 40 2:36:13 8:23
6 173 Liz Hendershott Ortonville 449 44 2:38:11 8:30
7 177 Leslie Rolfe Rochester Hill 530 41 2:38:49 8:32
8 183 Juli Liebler East Lansing 196 44 2:40:04 8:36
9 201 Kelly Carlson Clarkston 526 42 2:42:36 8:44
10 209 Consuelo A Olivares Me Ypsilanti 250 40 2:43:29 8:47
11 215 Pamela Walker Westland 362 41 2:44:15 8:49
12 223 Michele Hendrick Bloomfield Hil 500 40 2:45:06 8:52
13 260 Michele Ford Brighton 98 43 2:50:58 9:11
14 286 Rebecca Hoover Milford 147 43 2:55:45 9:26
15 300 Linda Eis South Lyon 83 44 2:58:25 9:35
16 340 Amy Krzyzanowski Plymouth 406 41 3:04:18 9:54
17 345 Lynn Valvona 513 41 3:05:57 9:59
18 349 Suzanne Mooney Warren 230 41 3:06:39 10:01
19 352 Janie Vitek Wixom 360 43 3:06:53 10:02
20 365 Colleen Hoffman Clinton 143 44 3:10:16 10:13
21 367 Karin Demuth Farmington Hil 65 44 3:11:23 10:16
22 369 Sandra Woolman West Boomfield 384 43 3:12:45 10:21
23 370 Jill Huff Milford 150 40 3:12:53 10:21
24 373 Kara Koenig Dexter 177 40 3:13:50 10:24
25 386 Marie Quayle Belleville 277 41 3:15:26 10:29
26 389 Cheryle Shamo Highland 312 42 3:16:33 10:33
27 390 Kathy Zimmer Northville 424 44 3:16:38 10:33
28 397 Yvonne Champoux Ypsilanti 415 40 3:17:33 10:36
29 409 Janet Wold Farmington Hil 383 42 3:20:01 10:44
30 413 Lori Verbrugge Milford 357 44 3:21:08 10:48
31 414 Andrea Myloyde Detroit 236 43 3:21:14 10:48
32 427 Jeanne White Ann Arbor 373 43 3:25:35 11:02
33 448 Janice Rueda Grosse Pointe 291 40 3:36:04 11:36
34 454 Tina Alagna Canton 4 42 3:38:54 11:45
35 458 Jean Thorington Pinckney 478 44 3:39:14 11:46
36 468 Sharon Gibson Ferndale 108 41 3:46:15 12:09
37 471 Jaqueline Brown Washington 32 44 3:48:45 12:17
38 473 Brie Wrenn South Lyon 469 41 3:50:15 12:22
39 476 Anne Macintyre Washington 512 41 3:51:57 12:27
40 479 Jayne Hannington West Bloomfiel 126 40 3:52:25 12:29
41 489 Cathy Schmantowsky Keego Harbor 300 43 4:06:10 13:13
42 492 Pamela Kleinschmidt Whitmore Lake 174 40 4:13:34 13:37
43 494 Elizabeth De Ros Walled Lake 427 43 4:16:13 13:45
44 495 Susan Card Columbiaville 38 42 4:17:57 13:51

MALE AGE GROUP: 45 - 49
Place Oal Name Town No. Ag Time Pace
===== === ====================== ============== ===== == ======= =====
1 11 Eric Stuber Lansing 514 46 1:59:36 6:25
2 14 John Niven Swartz Creek 243 45 2:00:06 6:27
3 25 Bent Andersen Ypsilanti 6 46 2:04:56 6:43
4 27 Larry Gutierrez Fenton 122 48 2:05:24 6:44
5 29 Virginio Martinez Jackson 216 48 2:06:10 6:47
6 38 Jay Owens Fenton 252 47 2:08:16 6:53
7 45 Thomas Biblewski Toledo 21 49 2:11:12 7:03
8 46 Eric Pagac Dearborn 253 46 2:11:55 7:05
9 50 Dean Fuller Burton 104 45 2:14:57 7:15
10 54 Kevin Leddy Livonia 190 49 2:16:07 7:19
11 57 Tim Jeffries Livonia 490 46 2:16:56 7:21
12 61 Chris Zimmer Northville 425 45 2:18:08 7:25
13 74 Eric Guenther 445 46 2:20:13 7:32
14 76 Stephen Luyckx Troy 483 46 2:20:29 7:33
15 77 John Demarco Brighton 63 47 2:20:44 7:33
16 81 Anthony Targan West Bloomfiel 338 47 2:22:28 7:39
17 83 James Rocktoff Farmington Hil 287 47 2:23:17 7:42
18 84 Dave Verbrugge Milford 356 48 2:23:25 7:42
19 86 Joaquin Luna Saginaw 203 48 2:23:31 7:42
20 87 Mark Baker Jackson 10 46 2:23:37 7:43
21 91 Andrew Harding Novi 128 49 2:23:54 7:44
22 97 Neil Hayner Rochester Hill 131 48 2:24:48 7:47
23 99 Minora Mitsuhashi Novi 488 46 2:24:52 7:47
24 110 David Desposato West Bloomfiel 68 46 2:26:13 7:51
25 113 Javier Robles Livonia 286 46 2:27:56 7:57
26 117 Mike Bechard Essex 458 47 2:28:27 7:58
27 123 Chris Schweizer White Lake 454 45 2:29:19 8:01
28 125 Mike Koerner Bloomfield Hil 178 48 2:29:39 8:02
29 131 Paul Huwoth 452 48 2:30:52 8:06
30 137 Ronald Brown Farmington Hil 33 48 2:32:07 8:10
31 146 Darryl Hill Southfield 140 47 2:33:47 8:15
32 152 Brian Francis Fenton 102 48 2:34:33 8:18
33 162 Kenichiro Maemura Novi 207 49 2:36:11 8:23
34 167 Mark Lewis South Haven 195 45 2:37:41 8:28
35 168 Stefan Stoll Ann Arbor 332 48 2:37:41 8:28
36 170 Mark Sirois Southgate 319 46 2:37:47 8:28
37 180 Gordon Steinke Farmington Hil 329 45 2:39:51 8:35
38 191 John Gossiaux Dearborn Heigh 114 49 2:40:39 8:38
39 193 Jack Carpenter Grand Rapids 43 47 2:41:04 8:39
40 195 Alan Fyffe Commerce 468 47 2:41:32 8:40
41 220 Mark Hommel Lake Isabella 145 47 2:44:40 8:50
42 221 Andrew Motowski Dewitt 235 48 2:44:44 8:51
43 232 Dale Marcin Grosse Pointe 211 46 2:47:06 8:58
44 233 Andrew Price Waterford 273 49 2:47:40 9:00
45 236 Robert Satterlee Ann Arbor 297 47 2:47:49 9:01
46 238 Matthew Reimann Troy 282 46 2:48:29 9:03
47 245 Mark Greer South Lyonq 117 46 2:49:08 9:05
48 246 Ed White Ann Arbor 372 48 2:49:20 9:05
49 274 Koichi Inaba Farmington Hil 151 47 2:53:11 9:18
50 276 James Pauer Ann Arbor 503 47 2:53:18 9:18
51 279 Roy Gomizawa West Bloomfile 112 46 2:54:21 9:22
52 283 David Siegel West Bloomfiel 315 45 2:55:42 9:26
53 285 Douglas Hoover Milford 146 45 2:55:44 9:26
54 303 Tony Farr Dearborn Heigh 91 45 2:58:47 9:36
55 306 Glen Gamoll Canton 439 46 2:58:59 9:37
56 313 Jeffery Randall Caro 280 45 2:59:59 9:40
57 338 Rick Leedy Pinckney 192 46 3:03:47 9:52
58 342 Peter Sperry Indianapolis 457 48 3:05:21 9:57
59 407 Blake Hershey West Bloomfiel 137 45 3:19:27 10:42
60 441 Mike Carey Riverview 481 48 3:32:40 11:25
61 460 Georg Schulte Whitmore Lake 302 49 3:39:44 11:48

FEMALE AGE GROUP: 45 - 49
Place Oal Name Town No. Ag Time Pace
===== === ====================== ============== ===== == ======= =====
1 49 Krys Brish Milford 31 46 2:12:57 7:08
2 56 Lori Brauer Livonia 29 45 2:16:39 7:20
3 112 Roberta Meyer 475 45 2:27:24 7:55
4 129 Michelle Groechel Novi 119 46 2:30:39 8:05
5 136 Ruth Lara Grand Blanc 187 48 2:31:33 8:08
6 188 Julie Ledford Howell 191 46 2:40:19 8:36
7 204 Ann Kurtis Livonia 182 47 2:43:01 8:45
8 241 Lisa Coleman Northville 50 48 2:48:56 9:04
9 266 Sharon Heskitt Oxford 138 48 2:51:48 9:13
10 282 Ines Storhok Ann Arbor 333 46 2:55:39 9:26
11 294 Myrrh Jennings Fenton 155 48 2:56:49 9:30
12 296 Andrea Eisenberg Bloomfield 84 46 2:56:59 9:30
13 329 Susan Warner Ortonville 364 45 3:02:37 9:48
14 347 Maha McCullough Northville 456 46 3:06:16 10:00
15 353 Janet Polidori Northville 263 45 3:07:28 10:04
16 361 Jan Henson Ortonville 462 49 3:09:46 10:11
17 378 Stacey Gray West Bloomfiel 444 47 3:14:58 10:28
18 385 Carrie Montgomery Livonia 229 45 3:15:26 10:29
19 395 Dia Chiku Mason West Bloomfiel 217 48 3:17:28 10:36
20 396 Karen Farmer West Bloomfiel 90 46 3:17:31 10:36
21 423 Wanda Yenkel Commerce Towns 386 48 3:23:20 10:55
22 434 Kim Burger Holly 36 46 3:29:21 11:14
23 437 Cheryl Lahey Livonia 184 45 3:30:06 11:17
24 442 Susan Cone Highland 52 46 3:33:04 11:26
25 449 Linda Doll Plymouth 73 49 3:36:15 11:36
26 490 Vicki Cerven-Astell Troy 46 49 4:07:26 13:17
27 491 Beth Jachman Redford 153 48 4:08:17 13:20
28 497 Sue Barnes Rochester Hill 13 49 4:18:29 13:52
29 498 Jane Morse Chelsea 234 48 4:40:26 15:03
30 499 Sally Popa Dryden 267 49 4:40:35 15:04

MALE AGE GROUP: 50 - 54
Place Oal Name Town No. Ag Time Pace
===== === ====================== ============== ===== == ======= =====
1 18 Thomas Piazza 504 50 2:03:25 6:38
2 43 Denis Chenard Windsor 453 51 2:10:05 6:59
3 60 Drew Williams Grand Blanc 376 51 2:17:59 7:25
4 65 Farsad Fotouhi Dexter 100 50 2:19:03 7:28
5 88 Mark Smith Grand Rapids 459 53 2:23:49 7:43
6 105 Wally Barnowski Royal Oak 440 54 2:25:38 7:49
7 144 Edward Carmichael Temperance 39 51 2:33:21 8:14
8 156 James Bearden Livonia 17 54 2:35:09 8:20
9 157 Michael Markie Roseville 213 54 2:35:19 8:20
10 165 David Prange Plymouth 269 51 2:36:31 8:24
11 172 Bruce Bagdady Novi 465 50 2:38:09 8:30
12 182 John Wilk Sterling Hts 494 50 2:39:59 8:35
13 292 Marvin Guitar Harrison Twp. 120 52 2:56:13 9:28
14 324 Tom Robinson Sand Lake 398 50 3:02:09 9:47
15 326 Thomas Sionkowski Ferndale 318 51 3:02:15 9:47
16 327 Tim Tompkins Rhodes 345 50 3:02:21 9:47
17 351 Reay Zoellner Eastpointe 392 51 3:06:49 10:02
18 358 John Segedi Jr Canton 520 50 3:08:55 10:09
19 360 John Penrice Livonia 258 53 3:09:45 10:11
20 362 Rich Obrien Milford 248 54 3:09:55 10:12
21 381 Raymond Miller Mason 228 53 3:15:14 10:29
22 383 Joel Chipman Clarkston 509 50 3:15:22 10:29
23 391 Mike Thibodeau Grand Blanc 502 52 3:16:41 10:34
24 392 Bruce Purdy Manchester 413 53 3:17:02 10:35
25 398 Don Kern Grand Rapids 170 53 3:17:41 10:37
26 432 Bob Ellis Taylor 85 54 3:27:40 11:09
27 451 Mike Palmer Clarkston 254 50 3:36:59 11:39
28 470 David Pfiester Ann Arbor 261 50 3:48:08 12:15
29 485 Bernard Oginski Troy 525 54 4:04:01 13:06

FEMALE AGE GROUP: 50 - 54
Place Oal Name Town No. Ag Time Pace
===== === ====================== ============== ===== == ======= =====
1 206 Joanne Piasecki Farmington Hil 262 52 2:43:06 8:45
2 230 Wanda Handlin Flint 125 52 2:46:19 8:56
3 248 Francine Robinson Grand Rapids 285 51 2:49:23 9:06
4 287 Nancy Knoll Warren 176 53 2:55:56 9:27
5 288 Laura Sawyer Clinton Townsh 298 52 2:55:58 9:27
6 366 Jane Digneit-Smith Beverly Hills 71 52 3:11:06 10:16
7 377 Barbara Zarowitz Orchard Lake 389 53 3:14:57 10:28
8 401 Joyce Segedi Canton 308 50 3:18:05 10:38
9 445 Suzanne Brasseur 474 52 3:34:30 11:31

MALE AGE GROUP: 55 - 59
Place Oal Name Town No. Ag Time Pace
===== === ====================== ============== ===== == ======= =====
1 37 John Tarkowski Northville 339 56 2:07:57 6:52
2 53 Doug Soliz Allen Park 325 59 2:16:04 7:18
3 72 Aaron Pratt Saline 270 55 2:19:43 7:30
4 79 D. Mark Squires Novi 327 58 2:21:36 7:36
5 94 Steve Miller Eaton Rapids 528 58 2:24:20 7:45
6 108 Jim O'Brien Bloomfield Hil 436 57 2:25:51 7:50
7 126 David Luckhardt Ypsilanti 201 58 2:29:44 8:02
8 212 Bob Kosen Shelby Twp 179 59 2:44:06 8:49
9 216 Dave Mahar Dowagiac 476 59 2:44:20 8:49
10 219 Daniel Martinez Allen Park 437 57 2:44:40 8:50
11 239 Chris Waters Royal Oak 366 55 2:48:44 9:04
12 247 Robin Pearce New Hudson 257 56 2:49:22 9:06
13 272 Michael Doyle Huntington Woo 77 56 2:52:56 9:17
14 277 Stafford Rorke Pontiac 288 55 2:53:49 9:20
15 278 Andrew Neuwirth Clinton Townsh 241 58 2:54:02 9:21
16 301 Dale Karr Milan 165 56 2:58:26 9:35
17 354 Peter Kantz Grosse Ile 162 56 3:07:35 10:04
18 355 Stephen Bouwkamp Farmington Hil 26 57 3:08:05 10:06
19 375 Ken Davis Canton 60 58 3:14:17 10:26
20 376 Myron Sedman Beverly Hills 307 59 3:14:42 10:27
21 417 Kevin Gleeson Troy 508 58 3:21:21 10:49
22 433 Joseph Kingsbury Grand Blanc 173 56 3:28:28 11:11
23 446 Richard Kroopneck West Bloomfiel 434 59 3:35:31 11:34
24 469 Frank Lewis Howell 194 58 3:46:51 12:11

FEMALE AGE GROUP: 55 - 59
Place Oal Name Town No. Ag Time Pace
===== === ====================== ============== ===== == ======= =====
1 268 Chantal Germa Ann Arbor 106 55 2:52:06 9:14
2 356 Jennifer Bouwkamp Farmington Hil 25 56 3:08:05 10:06
3 431 Suzanne Kozloski Grand Rapids 180 59 3:27:29 11:08
4 435 Linda Malvich Holly 208 57 3:29:21 11:14

MALE AGE GROUP: 60 - 64
Place Oal Name Town No. Ag Time Pace
===== === ====================== ============== ===== == ======= =====
1 208 Bill Begley Clinton Twp 414 61 2:43:21 8:46
2 295 Bill Moyer Berkley 416 60 2:56:59 9:30
3 408 Michael Curtis Swartz Creek 59 60 3:19:49 10:44
4 422 Dan Dewey Lake Orion 527 63 3:23:19 10:55
5 443 Fred Cone Highland 51 63 3:33:04 11:26
6 455 Domenick Alagna Canton 3 61 3:38:54 11:45
7 464 Bill Waterhouse Southfield 365 61 3:42:43 11:57

FEMALE AGE GROUP: 60 - 64
Place Oal Name Town No. Ag Time Pace
===== === ====================== ============== ===== == ======= =====
1 298 Nina Bovio Ann Arbor 27 63 2:57:24 9:31

MALE AGE GROUP: 65 - 69
Place Oal Name Town No. Ag Time Pace
===== === ====================== ============== ===== == ======= =====
1 127 Don Owens Williamston 251 65 2:30:12 8:04
2 234 Bill Keller Lansing 168 68 2:47:47 9:00
3 307 James Caporali Farmington Hil 417 67 2:59:01 9:37
4 371 Richard James Toledo 154 67 3:13:02 10:22

FEMALE AGE GROUP: 65 - 69
Place Oal Name Town No. Ag Time Pace
===== === ====================== ============== ===== == ======= =====
1 379 Francine Bangs Portage 12 69 3:15:02 10:28
2 410 Janet Wallen Flushing 363 68 3:20:12 10:45
3 418 Carol Swaney Ann Arbor 335 65 3:21:33 10:49

MALE AGE GROUP: 70 - 98
Place Oal Name Town No. Ag Time Pace
===== === ====================== ============== ===== == ======= =====
1 128 Peter Polidori Bingham Farms 264 71 2:30:39 8:05
2 302 Jerry Johncock Shelbyville 157 81 2:58:32 9:35
3 474 Ralph Judd Southfield 159 71 3:50:38 12:23

FEMALE AGE GROUP: 70 - 98
Place Oal Name Town No. Ag Time Pace
===== === ====================== ============== ===== == ======= =====
1 429 Cathy Detman Flint 69 70 3:26:18 11:04




OVERALL RESULTS FOR MILFORD LABOR DAY 30K BIKE
SATURDAY, SEPTEMBER 5, 2009

Place Oal Name Town No. Ag S Time Rate
===== === ====================== ============== ===== == = ======= ====
1 Rich Stark Ann Arbor 942 43 M 54:42 20.5

2 Michael Green Farmington Hil 908 45 M 54:46 20.4
3 Steve Dale Livonia 904 34 M 54:46 20.4
4 Lewis Tripp Milford 943 50 M 54:53 20.4
5 Dustin Rayner Holly 917 30 M 1:00:19 18.5
6 Dan Caterina Milford 901 43 M 1:00:30 18.5
7 Brian Scantamburlo Sterling Heigh 921 34 M 1:00:59 18.3
8 Dean Schink Milford 922 44 M 1:01:38 18.1
9 Basil Fernimos White Lake 801 42 M 1:02:04 18.0
10 Rob Schmantowsky White Lake 923 47 M 1:06:04 16.9
11 Rich Williams Commerce Twp 927 61 M 1:06:04 16.9
12 Brian McCormick 947 36 M 1:06:06 16.9
13 Lillian Ruiz Ypsilanti 919 46 F 1:06:47 16.8
14 Dave Caldwell Milford 935 37 M 1:06:47 16.8
15 Brian Walsh Novi 931 26 M 1:07:43 16.5
16 Kevin Phillips Troy 915 42 M 1:10:29 15.9
17 Becca Caldwell Milford 936 37 F 1:11:15 15.7
18 Jason Ryska Milford 920 38 M 1:14:37 15.0
19 Jason Weller Lansing 946 37 M 1:16:28 14.6
20 Mark Hosbach Milford 910 56 M 1:17:00 14.5
21 Terrie Johnson Farmington 802 49 F 1:17:19 14.5
22 Patrick McElyea Highland 933 38 M 1:17:20 14.5
23 Richard Collom Brooklyn 937 63 M 1:18:04 14.3
24 David Paine Milford 914 55 M 1:18:54 14.2
25 Adam Paine Milford 913 28 M 1:18:55 14.2
26 Bruce McPhee Waterford 950 49 M 1:19:07 14.1
27 Robert Guss Rochester Hill 944 49 M 1:19:43 14.0
28 James Earnshaw Chicago 905 54 M 1:20:29 13.9
29 Stacey Forehand Allenton 906 43 F 1:21:01 13.8
30 Jason Collom Milan 938 39 M 1:21:26 13.7
31 Brian Mabee Shelby Twp 945 45 M 1:21:51 13.7
32 Daniel Pembroke Highland 949 34 M 1:23:21 13.4
33 Barb Stalker Milford 934 42 F 1:23:43 13.4
34 Stephanie Reindel Canton 918 38 F 1:24:56 13.2
35 Christine Quane Milford 928 39 F 1:25:29 13.1
36 Robin Schweizer White Lake 948 46 F 1:25:33 13.1
37 Mollie Renko Milford 929 48 F 1:25:43 13.1
38 Jim Renko Milford 930 42 M 1:27:32 12.8
39 James Chipman Brighton 940 23 M 1:30:40 12.3
40 Tim Cornell Milford 939 48 M 1:30:40 12.3
41 Leslie Cruikshank Clarkston 903 56 F 1:30:50 12.3
42 Mindy Heidel Chesterton 909 29 F 1:31:08 12.3
43 Gary Skalski Northville 926 55 M 1:31:15 12.3
44 Jan Schroeder Rochester Hill 941 53 F 1:31:19 12.3
45 Sheryl Walsh Novi 932 56 F 1:33:57 11.9
46 Constance Bodurow Detroit 803 50 F 1:59:27 9.4
47 Walter Jominy Coral Springs 912 57 M 2:25:09 7.7
48 Jenny Jominy Coral Springs 911 58 F 2:25:09 7.7
9/05/2009 10:54AM


Milford,MI
Provided by Gault Race Mgt.